createdAt,value
2018-05-03T00:00:13.134Z,7.20
2018-05-03T00:01:11.884Z,4.70
2018-05-03T00:02:11.878Z,7.20
2018-05-03T00:03:11.736Z,6.80
2018-05-03T00:04:11.693Z,8.90
2018-05-03T00:05:11.601Z,5.40
2018-05-03T00:06:11.611Z,7.10
2018-05-03T00:07:11.401Z,6.80
2018-05-03T00:08:11.407Z,8.80
2018-05-03T00:09:11.238Z,7.70
2018-05-03T00:10:11.208Z,7.60
2018-05-03T00:11:11.109Z,5.70
2018-05-03T00:13:53.046Z,6.40
2018-05-03T00:14:53.062Z,6.70
2018-05-03T00:15:52.899Z,5.90
2018-05-03T00:16:52.840Z,6.60
2018-05-03T00:17:52.728Z,4.50
2018-05-03T00:18:52.743Z,7.00
2018-05-03T00:19:52.583Z,5.30
2018-05-03T00:20:52.582Z,4.30
2018-05-03T00:21:52.402Z,5.50
2018-05-03T00:22:52.358Z,5.20
2018-05-03T00:23:52.247Z,8.20
2018-05-03T00:24:52.268Z,5.10
2018-05-03T00:25:52.125Z,4.80
2018-05-03T00:26:52.078Z,7.30
2018-05-03T00:27:51.927Z,5.70
2018-05-03T00:28:51.886Z,5.70
2018-05-03T00:29:51.780Z,5.50
2018-05-03T00:30:51.830Z,4.70
2018-05-03T00:31:51.611Z,4.60
2018-05-03T00:32:51.630Z,5.70
2018-05-03T00:33:51.458Z,5.40
2018-05-03T00:34:51.422Z,5.10
2018-05-03T00:35:51.325Z,7.30
2018-05-03T00:36:51.329Z,5.60
2018-05-03T00:37:51.142Z,6.10
2018-05-03T00:38:51.127Z,4.90
2018-05-03T00:39:50.977Z,5.00
2018-05-03T00:40:50.985Z,7.00
2018-05-03T00:41:50.955Z,5.90
2018-05-03T00:42:50.863Z,4.50
2018-05-03T00:43:50.664Z,6.80
2018-05-03T00:44:50.660Z,5.90
2018-05-03T00:45:50.506Z,4.80
2018-05-03T00:46:50.502Z,3.60
2018-05-03T00:47:50.354Z,9.10
2018-05-03T00:48:50.369Z,4.60
2018-05-03T00:49:50.195Z,6.70
2018-05-03T00:50:50.191Z,4.20
2018-05-03T00:51:50.054Z,3.30
2018-05-03T00:52:49.997Z,4.20
2018-05-03T00:53:49.871Z,4.10
2018-05-03T00:54:49.908Z,3.40
2018-05-03T00:55:49.723Z,3.60
2018-05-03T00:56:49.747Z,5.00
2018-05-03T00:57:49.579Z,3.40
2018-05-03T00:58:49.520Z,3.10
2018-05-03T00:59:49.448Z,2.50
2018-05-03T01:00:49.430Z,2.90
2018-05-03T01:01:49.239Z,4.20
2018-05-03T01:02:49.277Z,3.00
2018-05-03T01:03:49.091Z,3.20
2018-05-03T01:04:49.050Z,3.20
2018-05-03T01:05:48.925Z,3.40
2018-05-03T01:06:48.963Z,3.60
2018-05-03T01:07:48.797Z,3.40
2018-05-03T01:08:48.772Z,3.10
2018-05-03T01:09:48.606Z,3.60
2018-05-03T01:10:48.580Z,3.30
2018-05-03T01:11:48.442Z,3.30
2018-05-03T01:12:48.417Z,4.20
2018-05-03T01:13:48.300Z,4.10
2018-05-03T01:16:30.562Z,4.50
2018-05-03T01:17:30.536Z,2.70
2018-05-03T01:18:30.417Z,3.10
2018-05-03T01:19:30.418Z,3.50
2018-05-03T01:20:30.239Z,3.50
2018-05-03T01:21:30.220Z,2.90
2018-05-03T01:22:30.075Z,2.80
2018-05-03T01:23:30.094Z,4.60
2018-05-03T01:24:29.920Z,3.10
2018-05-03T01:25:29.931Z,3.00
2018-05-03T01:26:29.752Z,4.70
2018-05-03T01:27:29.738Z,3.90
2018-05-03T01:28:29.620Z,3.60
2018-05-03T01:29:29.552Z,3.20
2018-05-03T01:30:29.443Z,4.00
2018-05-03T01:31:29.466Z,3.90
2018-05-03T01:32:29.286Z,5.00
2018-05-03T01:33:29.278Z,3.60
2018-05-03T01:34:29.150Z,3.40
2018-05-03T01:35:29.095Z,3.10
2018-05-03T01:36:28.972Z,3.80
2018-05-03T01:37:29.000Z,3.70
2018-05-03T01:38:28.843Z,3.30
2018-05-03T01:39:28.795Z,4.30
2018-05-03T01:40:28.647Z,4.30
2018-05-03T01:43:10.560Z,5.00
2018-05-03T01:44:11.555Z,4.40
2018-05-03T01:45:10.410Z,5.50
2018-05-03T01:46:10.420Z,4.50
2018-05-03T01:47:10.240Z,4.50
2018-05-03T01:48:10.223Z,7.20
2018-05-03T01:49:10.095Z,5.10
2018-05-03T01:50:10.032Z,4.90
2018-05-03T01:51:09.934Z,5.30
2018-05-03T01:52:10.046Z,5.90
2018-05-03T01:53:09.773Z,5.80
2018-05-03T01:54:10.822Z,5.90
2018-05-03T01:55:09.633Z,6.70
2018-05-03T01:57:51.553Z,6.90
2018-05-03T02:00:33.670Z,7.30
2018-05-03T02:01:33.556Z,6.80
2018-05-03T02:02:33.410Z,6.70
2018-05-03T02:03:33.360Z,7.10
2018-05-03T02:04:33.241Z,7.70
2018-05-03T02:05:33.310Z,7.40
2018-05-03T02:06:33.079Z,8.00
2018-05-03T02:07:33.088Z,8.20
2018-05-03T02:08:32.926Z,8.50
2018-05-03T02:09:32.887Z,8.30
2018-05-03T02:10:32.791Z,9.00
2018-05-03T02:11:32.842Z,9.00
2018-05-03T02:12:32.606Z,9.60
2018-05-03T02:15:14.559Z,9.70
2018-05-03T02:16:14.543Z,9.70
2018-05-03T02:17:14.411Z,9.90
2018-05-03T02:18:14.420Z,9.90
2018-05-03T02:19:14.246Z,9.60
2018-05-03T02:20:14.222Z,10.20
2018-05-03T02:21:14.122Z,10.80
2018-05-03T02:22:14.138Z,10.60
2018-05-03T02:23:13.925Z,9.90
2018-05-03T02:24:13.938Z,11.10
2018-05-03T02:25:13.781Z,10.60
2018-05-03T02:26:13.764Z,10.30
2018-05-03T02:27:13.645Z,10.80
2018-05-03T02:28:13.556Z,11.00
2018-05-03T02:29:13.449Z,11.70
2018-05-03T02:30:13.481Z,11.70
2018-05-03T02:31:13.290Z,11.80
2018-05-03T02:32:13.312Z,11.30
2018-05-03T02:33:13.153Z,11.30
2018-05-03T02:35:55.068Z,12.20
2018-05-03T02:36:56.039Z,12.00
2018-05-03T02:37:54.908Z,11.90
2018-05-03T02:40:37.073Z,11.20
2018-05-03T02:41:37.098Z,11.80
2018-05-03T02:42:37.071Z,11.60
2018-05-03T02:43:36.902Z,11.30
2018-05-03T02:44:36.748Z,11.50
2018-05-03T02:45:36.709Z,11.90
2018-05-03T02:46:36.595Z,12.00
2018-05-03T02:47:37.583Z,12.10
2018-05-03T02:48:36.439Z,12.10
2018-05-03T02:49:36.359Z,12.70
2018-05-03T02:50:36.296Z,11.90
2018-05-03T02:51:36.249Z,12.70
2018-05-03T02:52:36.139Z,12.40
2018-05-03T02:53:36.166Z,11.50
2018-05-03T02:54:35.958Z,12.10
2018-05-03T02:57:18.082Z,12.60
2018-05-03T02:58:19.143Z,12.60
2018-05-03T02:59:17.935Z,13.00
2018-05-03T03:00:17.892Z,12.70
2018-05-03T03:01:17.762Z,12.30
2018-05-03T03:02:17.792Z,12.40
2018-05-03T03:03:17.621Z,12.20
2018-05-03T03:04:17.584Z,12.80
2018-05-03T03:05:17.444Z,13.60
2018-05-03T03:07:59.587Z,12.00
2018-05-03T03:08:59.633Z,12.70
2018-05-03T03:09:59.418Z,12.90
2018-05-03T03:10:59.397Z,11.70
2018-05-03T03:11:59.251Z,12.00
2018-05-03T03:12:59.207Z,11.50
2018-05-03T03:13:59.110Z,12.10
2018-05-03T03:14:59.122Z,11.60
2018-05-03T03:15:58.943Z,11.70
2018-05-03T03:18:41.099Z,11.40
2018-05-03T03:19:41.057Z,10.90
2018-05-03T03:20:40.986Z,10.40
2018-05-03T03:21:40.972Z,10.00
2018-05-03T03:22:40.772Z,9.10
2018-05-03T03:23:40.754Z,9.20
2018-05-03T03:24:40.623Z,8.80
2018-05-03T03:25:40.566Z,9.20
2018-05-03T03:26:40.443Z,9.40
2018-05-03T03:27:40.496Z,9.20
2018-05-03T03:28:40.283Z,9.60
2018-05-03T03:29:40.313Z,9.30
2018-05-03T03:30:40.127Z,8.80
2018-05-03T03:33:22.078Z,7.60
2018-05-03T03:34:22.081Z,8.50
2018-05-03T03:35:22.088Z,9.10
2018-05-03T03:38:04.079Z,7.50
2018-05-03T03:39:04.099Z,8.20
2018-05-03T03:40:03.940Z,7.10
2018-05-03T03:41:03.931Z,6.80
2018-05-03T03:42:03.769Z,8.40
2018-05-03T03:44:45.590Z,7.20
2018-05-03T03:45:46.563Z,7.20
2018-05-03T03:46:45.427Z,10.00
2018-05-03T03:47:45.421Z,7.40
2018-05-03T03:48:45.261Z,8.30
2018-05-03T03:49:45.218Z,9.00
2018-05-03T03:50:45.123Z,8.10
2018-05-03T03:51:45.139Z,7.80
2018-05-03T03:52:44.949Z,7.70
2018-05-03T03:53:44.945Z,8.20
2018-05-03T03:54:44.786Z,8.60
2018-05-03T03:55:45.813Z,8.50
2018-05-03T03:56:44.735Z,7.50
2018-05-03T03:57:44.664Z,8.00
2018-05-03T03:58:44.466Z,6.10
2018-05-03T03:59:44.477Z,7.70
2018-05-03T04:00:44.313Z,7.00
2018-05-03T04:01:44.310Z,6.20
2018-05-03T04:02:44.149Z,10.60
2018-05-03T04:05:26.090Z,8.20
2018-05-03T04:06:27.151Z,5.40
2018-05-03T04:07:25.959Z,6.60
2018-05-03T04:10:08.094Z,6.60
2018-05-03T04:12:50.129Z,8.40
2018-05-03T04:15:32.090Z,10.70
2018-05-03T04:16:32.093Z,8.10
2018-05-03T04:17:31.945Z,7.50
2018-05-03T04:18:31.907Z,9.30
2018-05-03T04:19:31.764Z,6.80
2018-05-03T04:20:31.810Z,8.70
2018-05-03T04:21:31.605Z,8.20
2018-05-03T04:22:32.775Z,8.00
2018-05-03T04:23:31.455Z,7.20
2018-05-03T04:26:13.595Z,8.00
2018-05-03T04:27:13.566Z,9.80
2018-05-03T04:28:13.454Z,10.40
2018-05-03T04:29:13.438Z,9.10
2018-05-03T04:30:13.262Z,10.00
2018-05-03T04:31:13.244Z,7.20
2018-05-03T04:32:13.125Z,10.80
2018-05-03T04:33:14.074Z,7.90
2018-05-03T04:34:12.973Z,9.10
2018-05-03T04:36:55.110Z,8.20
2018-05-03T04:37:55.073Z,9.70
2018-05-03T04:38:54.957Z,9.20
2018-05-03T04:39:54.982Z,10.00
2018-05-03T04:40:54.778Z,9.40
2018-05-03T04:41:54.697Z,8.50
2018-05-03T04:42:54.607Z,10.00
2018-05-03T04:43:54.562Z,8.20
2018-05-03T04:44:54.447Z,8.20
2018-05-03T04:45:54.375Z,7.60
2018-05-03T04:46:54.412Z,7.70
2018-05-03T04:47:54.314Z,8.90
2018-05-03T04:48:54.159Z,10.60
2018-05-03T04:51:36.107Z,9.70
2018-05-03T04:52:36.128Z,10.80
2018-05-03T04:53:35.947Z,10.10
2018-05-03T04:54:36.988Z,10.40
2018-05-03T04:55:35.790Z,10.20
2018-05-03T04:56:35.807Z,9.00
2018-05-03T04:57:35.628Z,8.50
2018-05-03T04:58:35.643Z,11.80
2018-05-03T04:59:35.500Z,10.00
2018-05-03T05:00:35.447Z,8.60
2018-05-03T05:01:35.320Z,10.60
2018-05-03T05:04:17.631Z,11.20
2018-05-03T05:05:17.596Z,10.50
2018-05-03T05:06:17.456Z,9.80
2018-05-03T05:07:17.488Z,9.40
2018-05-03T05:08:17.335Z,11.30
2018-05-03T05:09:17.281Z,8.90
2018-05-03T05:10:17.146Z,10.40
2018-05-03T05:11:17.098Z,11.00
2018-05-03T05:12:16.967Z,12.20
2018-05-03T05:13:17.007Z,12.60
2018-05-03T05:14:16.804Z,10.30
2018-05-03T05:15:16.851Z,13.40
2018-05-03T05:16:16.674Z,13.10
2018-05-03T05:17:16.641Z,11.70
2018-05-03T05:18:16.485Z,10.10
2018-05-03T05:20:58.690Z,10.60
2018-05-03T05:21:58.810Z,11.60
2018-05-03T05:22:58.478Z,10.00
2018-05-03T05:23:58.434Z,11.70
2018-05-03T05:24:58.289Z,10.70
2018-05-03T05:25:58.297Z,10.00
2018-05-03T05:26:58.133Z,10.90
2018-05-03T05:27:58.150Z,14.00
2018-05-03T05:28:57.968Z,14.10
2018-05-03T05:29:57.976Z,11.70
2018-05-03T05:30:57.817Z,11.20
2018-05-03T05:31:57.774Z,12.40
2018-05-03T05:32:57.652Z,13.20
2018-05-03T05:33:57.687Z,10.80
2018-05-03T05:34:57.483Z,11.90
2018-05-03T05:35:57.542Z,11.10
2018-05-03T05:36:57.361Z,11.10
2018-05-03T05:37:57.303Z,11.40
2018-05-03T05:38:57.258Z,12.70
2018-05-03T05:39:57.221Z,12.80
2018-05-03T05:40:57.023Z,10.00
2018-05-03T05:41:57.036Z,11.80
2018-05-03T05:42:56.852Z,10.80
2018-05-03T05:43:56.777Z,13.80
2018-05-03T05:44:56.700Z,11.20
2018-05-03T05:45:57.703Z,13.60
2018-05-03T05:46:56.523Z,11.30
2018-05-03T05:47:57.509Z,12.70
2018-05-03T05:48:56.368Z,13.20
2018-05-03T05:51:38.620Z,11.60
2018-05-03T05:52:38.609Z,12.40
2018-05-03T05:53:38.470Z,10.70
2018-05-03T05:56:20.612Z,12.70
2018-05-03T05:57:20.633Z,13.00
2018-05-03T05:58:20.450Z,13.00
2018-05-03T05:59:20.485Z,13.30
2018-05-03T06:00:20.286Z,12.60
2018-05-03T06:03:02.145Z,12.90
2018-05-03T06:04:02.089Z,14.60
2018-05-03T06:05:01.960Z,13.20
2018-05-03T06:06:01.996Z,14.40
2018-05-03T06:07:01.810Z,12.90
2018-05-03T06:08:01.839Z,15.90
2018-05-03T06:09:01.648Z,13.70
2018-05-03T06:11:43.621Z,11.40
2018-05-03T06:12:43.651Z,13.20
2018-05-03T06:13:43.452Z,13.80
2018-05-03T06:16:25.665Z,12.00
2018-05-03T06:17:25.599Z,15.40
2018-05-03T06:18:25.475Z,14.10
2018-05-03T06:19:25.429Z,14.50
2018-05-03T06:20:25.303Z,18.20
2018-05-03T06:21:25.340Z,13.90
2018-05-03T06:22:25.142Z,16.20
2018-05-03T06:23:25.193Z,15.00
2018-05-03T06:24:25.018Z,13.70
2018-05-03T06:25:24.955Z,12.50
2018-05-03T06:26:24.829Z,14.40
2018-05-03T06:27:24.864Z,15.00
2018-05-03T06:28:24.670Z,14.70
2018-05-03T06:29:24.713Z,14.00
2018-05-03T06:30:24.514Z,15.80
2018-05-03T06:31:24.500Z,15.80
2018-05-03T06:32:24.389Z,16.00
2018-05-03T06:33:24.405Z,20.40
2018-05-03T06:34:24.893Z,18.20
2018-05-03T06:35:24.216Z,17.80
2018-05-03T06:36:24.043Z,17.90
2018-05-03T06:39:06.154Z,16.70
2018-05-03T06:40:06.104Z,16.10
2018-05-03T06:41:06.006Z,19.50
2018-05-03T06:42:05.929Z,22.00
2018-05-03T06:43:05.820Z,19.20
2018-05-03T06:44:05.841Z,22.20
2018-05-03T06:45:05.667Z,20.50
2018-05-03T06:46:06.703Z,24.40
2018-05-03T06:47:05.507Z,22.70
2018-05-03T06:48:05.508Z,21.90
2018-05-03T06:49:05.367Z,20.70
2018-05-03T06:51:47.661Z,19.30
2018-05-03T06:52:47.662Z,22.00
2018-05-03T06:53:47.467Z,19.30
2018-05-03T06:54:47.485Z,18.70
2018-05-03T06:55:47.365Z,19.30
2018-05-03T06:56:47.272Z,20.00
2018-05-03T06:57:47.164Z,20.70
2018-05-03T06:58:47.202Z,22.40
2018-05-03T06:59:47.016Z,23.30
2018-05-03T07:00:47.042Z,19.00
2018-05-03T07:01:46.855Z,21.20
2018-05-03T07:04:29.232Z,18.60
2018-05-03T07:05:29.151Z,20.00
2018-05-03T07:06:28.982Z,20.00
2018-05-03T07:07:29.037Z,16.60
2018-05-03T07:08:28.832Z,14.80
2018-05-03T07:11:11.175Z,15.20
2018-05-03T07:12:11.204Z,13.30
2018-05-03T07:13:11.015Z,17.70
2018-05-03T07:14:10.995Z,17.90
2018-05-03T07:15:10.869Z,13.40
2018-05-03T07:16:10.897Z,14.20
2018-05-03T07:17:10.683Z,15.20
2018-05-03T07:18:10.610Z,13.60
2018-05-03T07:19:10.536Z,14.00
2018-05-03T07:20:10.458Z,14.40
2018-05-03T07:21:10.428Z,14.10
2018-05-03T07:22:10.300Z,15.10
2018-05-03T07:23:10.223Z,13.70
2018-05-03T07:24:10.175Z,14.60
2018-05-03T07:25:10.061Z,13.90
2018-05-03T07:26:10.027Z,11.60
2018-05-03T07:27:09.907Z,11.70
2018-05-03T07:28:09.844Z,12.10
2018-05-03T07:29:09.761Z,11.90
2018-05-03T07:30:09.693Z,11.20
2018-05-03T07:31:09.625Z,13.30
2018-05-03T07:33:51.637Z,10.70
2018-05-03T07:34:51.639Z,10.30
2018-05-03T07:35:51.493Z,12.00
2018-05-03T07:36:52.446Z,10.10
2018-05-03T07:37:51.341Z,13.00
2018-05-03T07:38:51.301Z,12.80
2018-05-03T07:39:51.189Z,12.00
2018-05-03T07:40:51.173Z,11.70
2018-05-03T07:41:51.051Z,9.10
2018-05-03T07:42:51.017Z,11.20
2018-05-03T07:43:50.901Z,12.70
2018-05-03T07:46:33.182Z,14.40
2018-05-03T07:47:33.090Z,15.60
2018-05-03T07:48:33.039Z,10.60
2018-05-03T07:49:32.952Z,10.20
2018-05-03T07:50:32.940Z,13.20
2018-05-03T07:51:32.898Z,10.70
2018-05-03T07:52:32.722Z,9.20
2018-05-03T07:53:32.629Z,11.90
2018-05-03T07:54:32.549Z,12.30
2018-05-03T07:57:14.679Z,12.40
2018-05-03T07:58:14.612Z,8.30
2018-05-03T07:59:14.511Z,12.40
2018-05-03T08:00:14.453Z,9.20
2018-05-03T08:01:14.405Z,10.60
2018-05-03T08:02:14.318Z,10.20
2018-05-03T08:03:14.237Z,10.70
2018-05-03T08:04:14.157Z,13.60
2018-05-03T08:05:14.070Z,9.90
2018-05-03T08:06:14.060Z,9.80
2018-05-03T08:07:13.950Z,12.40
2018-05-03T08:08:14.874Z,11.40
2018-05-03T08:09:13.773Z,11.00
2018-05-03T08:10:13.694Z,9.40
2018-05-03T08:11:13.633Z,13.00
2018-05-03T08:12:13.546Z,11.10
2018-05-03T08:13:13.492Z,13.30
2018-05-03T08:14:13.397Z,12.10
2018-05-03T08:15:13.364Z,16.20
2018-05-03T08:16:13.261Z,10.80
2018-05-03T08:17:13.213Z,14.70
2018-05-03T08:19:55.197Z,10.00
2018-05-03T08:20:55.097Z,12.60
2018-05-03T08:21:55.026Z,12.30
2018-05-03T08:22:54.946Z,12.70
2018-05-03T08:23:54.884Z,13.40
2018-05-03T08:26:37.192Z,12.20
2018-05-03T08:29:19.183Z,12.50
2018-05-03T08:30:19.117Z,13.70
2018-05-03T08:31:19.016Z,12.90
2018-05-03T08:32:19.018Z,12.20
2018-05-03T08:33:18.881Z,11.50
2018-05-03T08:34:19.819Z,11.80
2018-05-03T08:35:18.740Z,10.50
2018-05-03T08:38:00.664Z,9.60
2018-05-03T08:39:00.599Z,13.50
2018-05-03T08:40:00.569Z,10.70
2018-05-03T08:41:00.455Z,12.60
2018-05-03T08:42:00.384Z,11.30
2018-05-03T08:43:00.310Z,12.30
2018-05-03T08:44:00.277Z,9.90
2018-05-03T08:45:00.192Z,12.20
2018-05-03T08:46:00.124Z,11.20
2018-05-03T08:48:42.185Z,12.20
2018-05-03T08:49:43.152Z,12.20
2018-05-03T08:50:42.017Z,12.60
2018-05-03T08:51:41.974Z,12.80
2018-05-03T08:52:41.902Z,10.80
2018-05-03T08:53:41.806Z,14.00
2018-05-03T08:54:41.753Z,11.60
2018-05-03T08:57:23.693Z,10.60
2018-05-03T08:58:23.611Z,13.40
2018-05-03T08:59:23.536Z,8.40
2018-05-03T09:00:24.492Z,8.00
2018-05-03T09:01:23.419Z,11.40
2018-05-03T09:04:05.683Z,12.30
2018-05-03T09:05:05.649Z,12.70
2018-05-03T09:06:05.530Z,9.90
2018-05-03T09:07:05.497Z,12.70
2018-05-03T09:08:05.395Z,9.30
2018-05-03T09:09:05.325Z,10.80
2018-05-03T09:10:05.272Z,10.90
2018-05-03T09:11:05.201Z,11.00
2018-05-03T09:12:05.107Z,7.80
2018-05-03T09:14:47.183Z,11.10
2018-05-03T09:15:47.151Z,11.10
2018-05-03T09:16:47.046Z,12.30
2018-05-03T09:17:46.992Z,10.70
2018-05-03T09:18:46.900Z,11.80
2018-05-03T09:21:29.212Z,10.20
2018-05-03T09:24:11.201Z,10.20
2018-05-03T09:25:11.141Z,9.70
2018-05-03T09:26:11.073Z,8.00
2018-05-03T09:27:10.992Z,8.90
2018-05-03T09:28:10.910Z,10.90
2018-05-03T09:29:10.843Z,6.70
2018-05-03T09:30:10.755Z,9.10
2018-05-03T09:31:10.734Z,9.70
2018-05-03T09:32:10.623Z,7.60
2018-05-03T09:33:10.566Z,7.00
2018-05-03T09:34:10.473Z,9.50
2018-05-03T09:35:10.411Z,9.40
2018-05-03T09:36:10.360Z,9.10
2018-05-03T09:37:10.272Z,10.10
2018-05-03T09:38:10.184Z,10.10
2018-05-03T09:40:52.196Z,7.30
2018-05-03T09:41:52.195Z,7.90
2018-05-03T09:42:52.051Z,10.40
2018-05-03T09:45:34.188Z,7.80
2018-05-03T09:46:34.164Z,8.50
2018-05-03T09:47:34.066Z,10.20
2018-05-03T09:50:16.188Z,9.30
2018-05-03T09:51:16.278Z,9.40
2018-05-03T09:52:16.104Z,10.80
2018-05-03T09:53:16.107Z,10.00
2018-05-03T09:54:15.907Z,11.30
2018-05-03T09:55:15.898Z,8.20
2018-05-03T09:56:15.771Z,7.50
2018-05-03T09:57:15.762Z,8.50
2018-05-03T09:58:15.639Z,9.10
2018-05-03T09:59:15.603Z,9.50
2018-05-03T10:00:15.485Z,10.40
2018-05-03T10:02:57.721Z,10.20
2018-05-03T10:05:39.701Z,10.20
2018-05-03T10:06:40.697Z,9.30
2018-05-03T10:07:39.643Z,9.30
2018-05-03T10:08:39.556Z,8.30
2018-05-03T10:09:39.410Z,9.10
2018-05-03T10:12:21.733Z,9.20
2018-05-03T10:13:21.798Z,8.60
2018-05-03T10:14:21.575Z,11.20
2018-05-03T10:17:03.844Z,9.50
2018-05-03T10:18:03.734Z,9.80
2018-05-03T10:19:03.573Z,6.30
2018-05-03T10:20:03.609Z,9.70
2018-05-03T10:21:03.431Z,8.10
2018-05-03T10:22:03.482Z,8.80
2018-05-03T10:23:03.335Z,9.60
2018-05-03T10:24:03.282Z,8.00
2018-05-03T10:25:03.135Z,8.30
2018-05-03T10:26:03.080Z,6.10
2018-05-03T10:27:02.999Z,8.70
2018-05-03T10:28:02.952Z,9.70
2018-05-03T10:29:03.019Z,8.70
2018-05-03T10:30:02.897Z,8.90
2018-05-03T10:31:02.728Z,9.20
2018-05-03T10:33:44.737Z,6.90
2018-05-03T10:36:26.733Z,8.60
2018-05-03T10:39:08.735Z,13.20
2018-05-03T10:41:50.714Z,8.70
2018-05-03T10:42:50.921Z,9.10
2018-05-03T10:43:50.598Z,6.80
2018-05-03T10:44:50.516Z,6.90
2018-05-03T10:45:50.709Z,6.40
2018-05-03T10:46:50.439Z,8.20
2018-05-03T10:47:50.333Z,8.60
2018-05-03T10:48:50.872Z,8.10
2018-05-03T10:49:50.405Z,9.60
2018-05-03T10:50:50.850Z,7.70
2018-05-03T10:51:50.026Z,8.10
2018-05-03T10:52:49.947Z,9.70
2018-05-03T10:53:49.903Z,9.20
2018-05-03T10:54:52.097Z,8.00
2018-05-03T10:55:49.752Z,9.00
2018-05-03T10:56:49.776Z,8.80
2018-05-03T10:57:49.610Z,8.30
2018-05-03T10:58:52.510Z,9.10
2018-05-03T10:59:49.516Z,10.50
2018-05-03T11:02:31.714Z,9.80
2018-05-03T11:03:31.690Z,8.90
2018-05-03T11:04:31.653Z,7.60
2018-05-03T11:05:31.715Z,8.00
2018-05-03T11:06:31.528Z,8.80
2018-05-03T11:09:13.744Z,7.30
2018-05-03T11:10:13.731Z,6.50
2018-05-03T11:11:13.685Z,6.50
2018-05-03T11:12:13.651Z,6.40
2018-05-03T11:13:13.534Z,9.70
2018-05-03T11:14:13.491Z,8.50
2018-05-03T11:15:13.318Z,9.70
2018-05-03T11:16:13.372Z,9.40
2018-05-03T11:17:13.182Z,8.10
2018-05-03T11:18:13.117Z,8.10
2018-05-03T11:19:13.039Z,12.20
2018-05-03T11:20:13.127Z,8.20
2018-05-03T11:21:12.896Z,6.20
2018-05-03T11:22:12.898Z,7.30
2018-05-03T11:23:12.787Z,7.90
2018-05-03T11:24:12.739Z,8.60
2018-05-03T11:25:12.675Z,5.40
2018-05-03T11:26:12.623Z,7.70
2018-05-03T11:27:12.523Z,5.70
2018-05-03T11:28:12.428Z,7.60
2018-05-03T11:29:12.344Z,6.00
2018-05-03T11:30:12.354Z,6.60
2018-05-03T11:31:12.216Z,7.90
2018-05-03T11:32:12.236Z,7.70
2018-05-03T11:33:12.093Z,6.20
2018-05-03T11:34:12.069Z,6.90
2018-05-03T11:35:11.946Z,7.40
2018-05-03T11:36:12.992Z,7.80
2018-05-03T11:37:11.787Z,7.40
2018-05-03T11:38:11.768Z,7.20
2018-05-03T11:39:11.868Z,6.50
2018-05-03T11:40:11.692Z,6.00
2018-05-03T11:41:11.529Z,5.60
2018-05-03T11:42:11.489Z,10.80
2018-05-03T11:43:11.480Z,8.10
2018-05-03T11:45:53.530Z,8.70
2018-05-03T11:46:53.503Z,8.50
2018-05-03T11:47:53.533Z,8.50
2018-05-03T11:50:35.267Z,8.80
2018-05-03T11:51:35.205Z,7.70
2018-05-03T11:52:35.138Z,8.00
2018-05-03T11:53:35.127Z,7.60
2018-05-03T11:54:34.945Z,7.80
2018-05-03T11:55:34.956Z,7.50
2018-05-03T11:56:34.825Z,6.70
2018-05-03T11:59:16.833Z,8.00
2018-05-03T12:00:16.722Z,7.20
2018-05-03T12:01:16.630Z,9.00
2018-05-03T12:02:16.640Z,8.60
2018-05-03T12:03:16.496Z,5.20
2018-05-03T12:04:16.449Z,7.20
2018-05-03T12:05:16.352Z,7.90
2018-05-03T12:06:16.286Z,8.20
2018-05-03T12:07:16.157Z,9.70
2018-05-03T12:08:16.162Z,7.70
2018-05-03T12:09:16.003Z,8.70
2018-05-03T12:10:15.975Z,7.10
2018-05-03T12:11:15.934Z,9.20
2018-05-03T12:12:15.834Z,9.30
2018-05-03T12:13:15.702Z,8.60
2018-05-03T12:14:15.636Z,7.30
2018-05-03T12:15:15.550Z,11.80
2018-05-03T12:16:15.487Z,8.20
2018-05-03T12:17:15.416Z,8.60
2018-05-03T12:18:15.419Z,8.00
2018-05-03T12:19:15.258Z,7.10
2018-05-03T12:21:57.338Z,5.60
2018-05-03T12:22:57.208Z,8.60
2018-05-03T12:23:57.159Z,7.90
2018-05-03T12:24:59.380Z,7.50
2018-05-03T12:25:56.955Z,5.60
2018-05-03T12:26:56.929Z,7.70
2018-05-03T12:27:56.804Z,7.10
2018-05-03T12:30:42.783Z,8.10
2018-05-03T12:31:42.773Z,7.90
2018-05-03T12:32:42.619Z,10.90
2018-05-03T12:33:42.654Z,8.90
2018-05-03T12:34:42.451Z,7.20
2018-05-03T12:35:42.460Z,10.40
2018-05-03T12:36:42.296Z,8.10
2018-05-03T12:37:42.299Z,8.50
2018-05-03T12:38:42.156Z,7.10
2018-05-03T12:39:43.149Z,11.20
2018-05-03T12:40:42.019Z,6.30
2018-05-03T12:41:42.007Z,7.20
2018-05-03T12:42:41.842Z,9.70
2018-05-03T12:43:41.794Z,8.90
2018-05-03T12:44:41.724Z,7.70
2018-05-03T12:45:41.620Z,9.00
2018-05-03T12:46:41.551Z,8.60
2018-05-03T12:47:42.501Z,8.30
2018-05-03T12:48:41.376Z,7.60
2018-05-03T12:49:41.323Z,9.40
2018-05-03T12:50:41.251Z,10.20
2018-05-03T12:51:41.308Z,8.80
2018-05-03T12:52:41.103Z,9.70
2018-05-03T12:53:41.006Z,8.10
2018-05-03T12:54:40.980Z,8.30
2018-05-03T12:55:41.012Z,8.70
2018-05-03T12:56:40.785Z,6.40
2018-05-03T12:57:40.801Z,7.30
2018-05-03T12:58:40.647Z,8.60
2018-05-03T12:59:40.679Z,7.40
2018-05-03T13:00:40.526Z,8.10
2018-05-03T13:01:40.495Z,7.70
2018-05-03T13:02:40.327Z,9.00
2018-05-03T13:03:41.367Z,9.60
2018-05-03T13:04:40.160Z,8.80
2018-05-03T13:05:40.237Z,7.70
2018-05-03T13:06:40.042Z,6.90
2018-05-03T13:07:40.040Z,9.10
2018-05-03T13:08:39.856Z,8.30
2018-05-03T13:11:21.776Z,11.40
2018-05-03T13:12:21.739Z,8.00
2018-05-03T13:13:21.645Z,7.70
2018-05-03T13:14:21.580Z,6.50
2018-05-03T13:15:21.456Z,7.30
2018-05-03T13:16:21.430Z,8.50
2018-05-03T13:17:21.311Z,12.70
2018-05-03T13:18:21.349Z,6.90
2018-05-03T13:19:21.210Z,9.60
2018-05-03T13:22:03.295Z,8.80
2018-05-03T13:23:03.769Z,8.60
2018-05-03T13:24:03.146Z,8.70
2018-05-03T13:25:03.926Z,6.60
2018-05-03T13:26:02.974Z,6.90
2018-05-03T13:27:02.903Z,8.90
2018-05-03T13:28:02.835Z,7.60
2018-05-03T13:29:03.261Z,7.70
2018-05-03T13:30:02.700Z,6.70
2018-05-03T13:32:44.786Z,7.10
2018-05-03T13:33:44.841Z,9.20
2018-05-03T13:34:44.647Z,6.60
2018-05-03T13:35:44.557Z,7.10
2018-05-03T13:36:44.491Z,6.40
2018-05-03T13:37:44.419Z,7.50
2018-05-03T13:38:44.357Z,7.20
2018-05-03T13:39:44.385Z,9.30
2018-05-03T13:40:44.183Z,10.10
2018-05-03T13:41:44.133Z,6.90
2018-05-03T13:42:44.016Z,6.80
2018-05-03T13:43:44.047Z,6.50
2018-05-03T13:44:44.170Z,7.90
2018-05-03T13:45:43.809Z,7.60
2018-05-03T13:46:44.096Z,6.10
2018-05-03T13:49:25.788Z,7.30
2018-05-03T13:50:26.802Z,6.40
2018-05-03T13:51:25.716Z,7.00
2018-05-03T13:52:25.651Z,6.40
2018-05-03T13:53:25.516Z,6.70
2018-05-03T13:54:25.497Z,6.30
2018-05-03T13:55:25.355Z,8.30
2018-05-03T13:58:07.295Z,6.70
2018-05-03T13:59:07.231Z,7.20
2018-05-03T14:00:07.184Z,5.80
2018-05-03T14:01:07.092Z,5.80
2018-05-03T14:02:06.997Z,4.20
2018-05-03T14:04:49.296Z,5.90
2018-05-03T14:05:49.377Z,4.40
2018-05-03T14:06:49.160Z,7.20
2018-05-03T14:07:49.115Z,6.60
2018-05-03T14:08:48.973Z,5.10
2018-05-03T14:11:31.318Z,5.70
2018-05-03T14:12:31.347Z,6.40
2018-05-03T14:13:31.151Z,7.00
2018-05-03T14:14:31.138Z,7.10
2018-05-03T14:15:31.011Z,4.60
2018-05-03T14:16:30.975Z,5.70
2018-05-03T14:17:30.869Z,4.70
2018-05-03T14:18:30.840Z,5.70
2018-05-03T14:19:30.664Z,4.90
2018-05-03T14:20:30.669Z,6.50
2018-05-03T14:21:30.539Z,5.80
2018-05-03T14:22:30.709Z,6.10
2018-05-03T14:23:30.366Z,5.70
2018-05-03T14:24:30.383Z,6.80
2018-05-03T14:25:30.206Z,6.60
2018-05-03T14:26:30.155Z,7.50
2018-05-03T14:27:30.091Z,5.10
2018-05-03T14:28:30.133Z,7.40
2018-05-03T14:29:29.910Z,5.30
2018-05-03T14:30:29.909Z,8.60
2018-05-03T14:31:29.746Z,4.90
2018-05-03T14:32:29.721Z,6.50
2018-05-03T14:33:29.624Z,6.50
2018-05-03T14:36:11.830Z,7.70
2018-05-03T14:37:11.826Z,7.80
2018-05-03T14:38:11.701Z,4.90
2018-05-03T14:39:12.697Z,7.60
2018-05-03T14:40:11.509Z,6.90
2018-05-03T14:41:11.437Z,5.20
2018-05-03T14:42:11.341Z,4.80
2018-05-03T14:43:11.354Z,5.10
2018-05-03T14:44:11.225Z,6.20
2018-05-03T14:45:11.174Z,6.00
2018-05-03T14:46:11.031Z,6.40
2018-05-03T14:47:11.099Z,4.60
2018-05-03T14:48:10.892Z,8.10
2018-05-03T14:49:10.820Z,4.50
2018-05-03T14:50:10.756Z,8.20
2018-05-03T14:52:52.798Z,7.20
2018-05-03T14:53:52.804Z,6.40
2018-05-03T14:54:52.648Z,6.60
2018-05-03T14:55:52.635Z,8.00
2018-05-03T14:56:52.515Z,8.40
2018-05-03T14:57:52.530Z,6.10
2018-05-03T14:58:52.361Z,6.10
2018-05-03T15:01:34.323Z,6.10
2018-05-03T15:02:34.415Z,4.40
2018-05-03T15:03:34.169Z,7.90
2018-05-03T15:04:34.132Z,6.00
2018-05-03T15:05:34.017Z,5.60
2018-05-03T15:08:16.399Z,8.40
2018-05-03T15:09:16.370Z,7.60
2018-05-03T15:10:16.174Z,5.90
2018-05-03T15:11:16.195Z,9.20
2018-05-03T15:12:15.994Z,6.70
2018-05-03T15:13:15.962Z,5.40